Legnica, Poland
Current Conditions -  °F | °C
As of 12:30 PM on Saturday 01 Nov 2014 (Local Time) from EPWR Reporting Station
Clear Clear  
Wind Chill: 54°   Ceiling: Unl
Heat Index: 54°   Visibility: 4mi
Dew Point: 48°   Wind: 3mph
Humidity: 82%   Direction: 120°ESE
Pressure: 30.21"   Gusts: NA
Location:  51.21°N, 16.16°E
Report Text: EPWR 011030Z 12003KT 090V150 7000 NSC 12/09 Q1023
Loading
Personal Weather Stations






























Interactive Weather Map
Tropical Storm Tracking
New forecast layout! Learn more

10-Day Weather Forecast

Advertisements
Track Severe Weather on mobile